Time;durP1;ratioP1;P1;durP2;ratioP2;P2;SDS_P1;SDS_P2;PMS_P1;PMS_P2;Temp;Humidity;BMP_temperature;BMP_pressure;BME280_temperature;BME280_humidity;BME280_pressure;Samples;Min_cycle;Max_cycle;Signal;HPM_P1;HPM_P2
2022/01/28 00:00:04;;;;;;;22.92;20.55;;;;;;;2.10;100.00;98587.91;2106982;28;20174;-72
2022/01/28 00:01:15;;;;;;;22.17;20.02;;;;;;;2.06;100.00;98618.38;2106953;28;20181;-72
2022/01/28 00:02:42;;;;;;;22.35;20.13;;;;;;;2.09;100.00;98578.44;2107148;28;20205;-72
2022/01/28 00:03:45;;;;;;;22.67;20.50;;;;;;;2.04;100.00;98583.63;2105512;28;20263;-72
2022/01/28 00:04:47;;;;;;;22.40;20.23;;;;;;;2.06;100.00;98594.69;2097797;28;20297;-73
2022/01/28 00:05:54;;;;;;;24.35;21.95;;;;;;;2.04;100.00;98591.53;2097957;28;20283;-72
2022/01/28 00:06:58;;;;;;;23.58;21.17;;;;;;;2.03;100.00;98599.69;2105972;28;20217;-72
2022/01/28 00:08:03;;;;;;;24.55;22.17;;;;;;;2.06;100.00;98583.38;2106154;28;20197;-73
2022/01/28 00:09:05;;;;;;;22.60;20.42;;;;;;;2.03;100.00;98584.69;2106488;28;20606;-73
2022/01/28 00:10:09;;;;;;;23.70;21.48;;;;;;;2.09;100.00;98570.53;2106207;28;20634;-73
2022/01/28 00:11:13;;;;;;;23.90;21.70;;;;;;;2.07;100.00;98591.00;2098026;28;20656;-73
2022/01/28 00:12:15;;;;;;;24.85;22.52;;;;;;;2.08;100.00;98576.03;2107807;28;20197;-73
2022/01/28 00:13:31;;;;;;;24.73;22.52;;;;;;;2.08;100.00;98578.66;2107496;28;20197;-73
2022/01/28 00:14:41;;;;;;;25.58;23.08;;;;;;;2.05;100.00;98585.22;2101392;28;20202;-72
2022/01/28 00:15:56;;;;;;;24.23;21.92;;;;;;;2.03;100.00;98589.16;2108021;28;20170;-72
2022/01/28 00:36:46;;;;;;;24.92;22.33;;;;;;;2.12;100.00;98564.75;2107198;28;20235;-72
2022/01/28 00:38:09;;;;;;;27.98;23.35;;;;;;;2.14;100.00;98569.75;2108003;28;20707;-72
2022/01/28 00:39:13;;;;;;;24.55;22.33;;;;;;;2.18;100.00;98586.63;2107369;28;20200;-71
2022/01/28 00:40:17;;;;;;;23.52;21.42;;;;;;;2.07;100.00;98567.34;2107595;28;20198;-72
2022/01/28 00:41:21;;;;;;;24.17;21.98;;;;;;;2.13;100.00;98565.53;2107725;28;20621;-71
2022/01/28 00:42:24;;;;;;;24.08;21.95;;;;;;;2.15;100.00;98560.81;2107524;28;20209;-71
2022/01/28 00:43:28;;;;;;;24.77;22.48;;;;;;;2.08;100.00;98566.28;2107370;28;20680;-71
2022/01/28 00:44:32;;;;;;;24.88;22.48;;;;;;;2.09;100.00;98567.09;2108515;28;20204;-71
2022/01/28 00:45:36;;;;;;;23.60;21.30;;;;;;;2.08;100.00;98597.88;2108441;28;20200;-71
2022/01/28 00:46:38;;;;;;;25.83;23.40;;;;;;;2.14;100.00;98560.03;2108253;28;20683;-71
2022/01/28 00:47:46;;;;;;;24.43;22.13;;;;;;;2.12;100.00;98570.00;2108488;28;20565;-71
2022/01/28 00:48:49;;;;;;;24.58;22.38;;;;;;;2.15;100.00;98561.59;2107531;28;21047;-71
2022/01/28 00:49:54;;;;;;;25.30;22.88;;;;;;;2.15;100.00;98566.88;2107675;28;20268;-71
2022/01/28 00:50:59;;;;;;;24.85;22.55;;;;;;;2.15;100.00;98553.72;2106568;28;20232;-71
2022/01/28 00:52:01;;;;;;;24.77;22.40;;;;;;;2.17;100.00;98598.19;2107877;28;20170;-71
2022/01/28 00:53:03;;;;;;;24.90;22.60;;;;;;;2.17;100.00;98567.44;2107164;28;20675;-71
2022/01/28 00:54:04;;;;;;;24.00;21.90;;;;;;;2.19;100.00;98561.91;2107660;28;20284;-71
2022/01/28 00:55:08;;;;;;;24.00;21.90;;;;;;;2.23;100.00;98547.97;2107950;28;20210;-71
2022/01/28 00:56:14;;;;;;;25.00;22.58;;;;;;;2.18;100.00;98581.38;2099092;28;20209;-71
2022/01/28 00:57:18;;;;;;;25.98;23.58;;;;;;;2.21;100.00;98565.06;2107879;28;20197;-71
2022/01/28 00:58:23;;;;;;;24.95;22.48;;;;;;;2.20;100.00;98561.66;2108178;28;20185;-71
2022/01/28 00:59:25;;;;;;;25.50;23.20;;;;;;;2.18;100.00;98563.75;2107020;28;20562;-71
2022/01/28 01:00:29;;;;;;;26.52;23.88;;;;;;;2.19;100.00;98573.22;2107664;28;20272;-71
2022/01/28 01:01:32;;;;;;;25.65;23.13;;;;;;;2.18;100.00;98568.22;2107382;28;20229;-71
2022/01/28 01:02:39;;;;;;;25.30;22.90;;;;;;;2.16;100.00;98563.19;2099194;28;20268;-71
2022/01/28 01:03:46;;;;;;;25.92;23.25;;;;;;;2.17;100.00;98572.69;2107638;28;20277;-71
2022/01/28 01:04:48;;;;;;;24.85;22.50;;;;;;;2.24;100.00;98569.81;2107103;28;20690;-71
2022/01/28 01:05:51;;;;;;;25.80;23.40;;;;;;;2.22;100.00;98572.72;2099024;28;20218;-71
2022/01/28 01:06:52;;;;;;;25.90;23.23;;;;;;;2.23;100.00;98547.97;2098347;28;20222;-71
2022/01/28 01:07:55;;;;;;;25.83;23.33;;;;;;;2.24;100.00;98554.81;2099112;28;20204;-71
2022/01/28 01:08:58;;;;;;;23.83;21.63;;;;;;;2.26;100.00;98555.38;2107822;28;20262;-72
2022/01/28 01:10:01;;;;;;;23.70;21.52;;;;;;;2.30;100.00;98550.38;2099438;28;20676;-72
2022/01/28 01:11:03;;;;;;;23.15;21.00;;;;;;;2.30;100.00;98539.88;2099154;28;20516;-71
2022/01/28 01:12:08;;;;;;;24.17;21.77;;;;;;;2.31;100.00;98538.81;2107568;28;20264;-71
2022/01/28 01:13:11;;;;;;;23.10;20.83;;;;;;;2.35;100.00;98545.16;2108063;28;20193;-72
2022/01/28 01:14:15;;;;;;;24.30;21.80;;;;;;;2.32;100.00;98536.97;2106893;28;20335;-71
2022/01/28 01:15:24;;;;;;;24.05;21.88;;;;;;;2.34;100.00;98532.22;2107446;28;20190;-72
2022/01/28 01:16:30;;;;;;;23.35;21.25;;;;;;;2.32;100.00;98537.75;2107400;28;20202;-71
2022/01/28 01:17:41;;;;;;;23.73;21.50;;;;;;;2.32;100.00;98540.41;2100303;28;20218;-71
2022/01/28 01:18:51;;;;;;;23.58;21.40;;;;;;;2.34;100.00;98522.50;2107531;28;20260;-71
2022/01/28 01:20:08;;;;;;;24.20;21.85;;;;;;;2.31;100.00;98517.75;2108293;28;20619;-71
2022/01/28 01:21:19;;;;;;;24.17;21.92;;;;;;;2.30;100.00;98544.34;2107553;28;20177;-73
2022/01/28 01:22:25;;;;;;;23.77;21.50;;;;;;;2.32;100.00;98539.59;2108264;28;20174;-73
2022/01/28 01:23:29;;;;;;;22.92;20.83;;;;;;;2.32;100.00;98527.22;2107595;28;20560;-72
2022/01/28 01:24:36;;;;;;;26.02;23.77;;;;;;;2.31;100.00;98522.22;2108237;28;20205;-72
2022/01/28 01:25:46;;;;;;;26.35;24.15;;;;;;;2.28;100.00;98517.47;2108027;28;20182;-72
2022/01/28 01:26:52;;;;;;;26.75;24.42;;;;;;;2.28;100.00;98512.22;2108194;28;20221;-72
2022/01/28 01:27:57;;;;;;;27.90;25.55;;;;;;;2.23;100.00;98539.28;2107967;28;20205;-73
2022/01/28 01:29:01;;;;;;;29.63;26.88;;;;;;;2.20;100.00;98506.38;2108098;28;20198;-72
2022/01/28 01:30:03;;;;;;;28.25;25.67;;;;;;;2.23;100.00;98502.44;2107240;28;20224;-73
2022/01/28 01:31:11;;;;;;;27.77;25.38;;;;;;;2.26;100.00;98521.16;2099167;28;20202;-73
2022/01/28 01:32:17;;;;;;;28.58;26.08;;;;;;;2.22;100.00;98520.06;2099326;28;20202;-72
2022/01/28 01:33:21;;;;;;;27.13;24.92;;;;;;;2.14;100.00;98522.41;2099206;28;20241;-72
2022/01/28 01:34:24;;;;;;;27.77;25.40;;;;;;;2.17;100.00;98522.69;2098723;28;20221;-72
2022/01/28 01:35:29;;;;;;;26.45;24.15;;;;;;;2.14;100.00;98532.91;2099402;28;20672;-73
2022/01/28 01:36:31;;;;;;;26.27;24.00;;;;;;;2.12;100.00;98538.44;2106983;28;20222;-73
2022/01/28 01:37:34;;;;;;;26.73;24.38;;;;;;;2.10;100.00;98522.13;2106631;28;20201;-73
2022/01/28 01:38:39;;;;;;;26.88;24.48;;;;;;;2.14;100.00;98530.28;2106863;28;20252;-73
2022/01/28 01:39:44;;;;;;;24.00;22.00;;;;;;;2.16;100.00;98530.81;2107515;28;20186;-73
2022/01/28 01:40:52;;;;;;;25.10;22.80;;;;;;;2.17;100.00;98542.94;2106775;28;20201;-73
2022/01/28 01:42:00;;;;;;;25.33;22.98;;;;;;;2.18;100.00;98545.34;2107412;28;20181;-73
2022/01/28 01:43:10;;;;;;;24.50;22.48;;;;;;;2.12;100.00;98533.19;2105626;28;20225;-73
2022/01/28 01:44:25;;;;;;;23.60;21.70;;;;;;;2.17;100.00;98533.22;2107407;28;20180;-73
2022/01/28 01:45:56;;;;;;;24.75;22.65;;;;;;;2.18;100.00;98541.91;2108182;28;20200;-73
2022/01/28 01:52:01;;;;;;;25.35;22.75;;;;;;;2.16;100.00;98541.34;2106725;28;20213;-73
2022/01/28 01:52:44;;;;;;;28.70;26.05;;;;;;;2.14;100.00;98536.34;2107354;28;20580;-73
2022/01/28 01:53:47;;;;;;;27.80;25.25;;;;;;;2.13;100.00;98531.34;2107077;28;20568;-73
2022/01/28 01:54:52;;;;;;;25.83;23.80;;;;;;;2.08;100.00;98521.56;2107307;28;20189;-73
2022/01/28 01:55:54;;;;;;;26.58;24.38;;;;;;;2.07;100.00;98517.34;2107766;28;20196;-72
2022/01/28 01:57:01;;;;;;;25.60;23.25;;;;;;;2.08;100.00;98534.72;2108020;28;20213;-73
2022/01/28 01:58:03;;;;;;;26.08;23.95;;;;;;;2.12;100.00;98532.38;2107735;28;20234;-73
2022/01/28 01:59:07;;;;;;;25.35;23.27;;;;;;;2.13;100.00;98528.72;2107821;28;20193;-74
2022/01/28 02:00:12;;;;;;;25.52;23.52;;;;;;;2.09;100.00;98515.28;2106990;28;20205;-73
2022/01/28 02:01:24;;;;;;;24.92;22.73;;;;;;;2.00;100.00;98522.06;2107223;28;20688;-73
2022/01/28 02:02:27;;;;;;;25.45;23.35;;;;;;;1.97;100.00;98498.88;2107869;28;20190;-73
2022/01/28 02:03:30;;;;;;;25.38;23.38;;;;;;;1.95;100.00;98498.34;2107722;28;20269;-73
2022/01/28 02:04:35;;;;;;;24.48;22.48;;;;;;;1.94;100.00;98525.69;2107726;28;20201;-73
2022/01/28 02:05:41;;;;;;;23.27;21.17;;;;;;;1.93;100.00;98505.69;2107800;28;20198;-73
2022/01/28 02:06:46;;;;;;;23.35;21.45;;;;;;;1.91;100.00;98497.25;2107410;28;20226;-73
2022/01/28 02:07:50;;;;;;;24.75;22.55;;;;;;;1.96;100.00;98505.19;2107806;28;20272;-73
2022/01/28 02:08:52;;;;;;;23.60;21.55;;;;;;;1.95;100.00;98493.06;2107691;28;20656;-73
2022/01/28 02:09:55;;;;;;;24.10;22.10;;;;;;;1.90;100.00;98501.72;2107592;28;20190;-73
2022/01/28 02:10:58;;;;;;;22.40;20.45;;;;;;;1.94;100.00;98494.91;2107656;28;20193;-73
2022/01/28 02:12:01;;;;;;;22.88;20.88;;;;;;;1.88;100.00;98495.91;2107663;28;20211;-73
2022/01/28 02:13:04;;;;;;;20.90;19.10;;;;;;;1.89;100.00;98521.16;2106463;28;20201;-73
2022/01/28 02:14:07;;;;;;;21.42;19.67;;;;;;;1.91;100.00;98505.97;2107008;28;20191;-73
2022/01/28 02:15:10;;;;;;;22.08;20.38;;;;;;;1.92;100.00;98498.84;2107781;28;20228;-73
2022/01/28 02:16:13;;;;;;;21.67;19.98;;;;;;;1.95;100.00;98496.50;2107516;28;20238;-73
2022/01/28 02:17:15;;;;;;;22.92;20.92;;;;;;;1.95;100.00;98485.19;2107553;28;20182;-73
2022/01/28 02:18:21;;;;;;;21.58;19.67;;;;;;;1.99;100.00;98489.66;2107600;28;20190;-73
2022/01/28 02:19:26;;;;;;;20.85;19.15;;;;;;;1.97;100.00;98488.34;2106493;28;20610;-73
2022/01/28 02:20:34;;;;;;;20.60;18.90;;;;;;;1.94;100.00;98494.91;2107151;28;20192;-73
2022/01/28 02:21:44;;;;;;;21.30;19.48;;;;;;;1.91;100.00;98486.72;2106518;28;20232;-73
2022/01/28 02:22:48;;;;;;;20.58;18.98;;;;;;;1.92;100.00;98486.50;2107035;28;20381;-73
2022/01/28 02:23:56;;;;;;;20.75;19.15;;;;;;;1.92;100.00;98488.34;2107775;28;20683;-73
2022/01/28 02:25:01;;;;;;;20.52;18.92;;;;;;;1.99;100.00;98484.41;2106436;28;20260;-72
2022/01/28 02:26:06;;;;;;;20.58;18.88;;;;;;;1.99;100.00;98494.94;2106960;28;20198;-72
2022/01/28 02:27:11;;;;;;;19.60;18.00;;;;;;;1.99;100.00;98505.44;2106217;28;20217;-73
2022/01/28 02:28:18;;;;;;;20.73;19.05;;;;;;;2.05;100.00;98505.50;2106925;28;20193;-73
2022/01/28 02:29:28;;;;;;;19.70;18.05;;;;;;;2.04;100.00;98481.03;2106727;28;20813;-73
2022/01/28 02:30:30;;;;;;;19.88;18.15;;;;;;;2.12;100.00;98488.44;2099683;28;20198;-72
2022/01/28 02:31:35;;;;;;;19.58;18.08;;;;;;;2.11;100.00;98480.81;2098576;28;20206;-72
2022/01/28 02:32:39;;;;;;;19.83;18.30;;;;;;;2.13;100.00;98508.44;2106847;28;20644;-72
2022/01/28 02:33:44;;;;;;;21.63;19.42;;;;;;;2.12;100.00;98477.91;2107391;28;20194;-73
2022/01/28 02:34:49;;;;;;;19.48;17.98;;;;;;;2.13;100.00;98474.25;2106339;28;20237;-73
2022/01/28 02:35:55;;;;;;;19.88;18.20;;;;;;;2.16;100.00;98478.97;2097948;28;20258;-72
2022/01/28 02:37:00;;;;;;;20.50;18.88;;;;;;;2.17;100.00;98488.47;2106802;28;20209;-72
2022/01/28 02:38:01;;;;;;;19.52;17.95;;;;;;;2.16;100.00;98502.66;2106319;28;20209;-72
2022/01/28 02:39:05;;;;;;;19.75;18.13;;;;;;;2.26;100.00;98468.53;2106819;28;20268;-72
2022/01/28 02:40:09;;;;;;;20.08;18.55;;;;;;;2.26;100.00;98484.31;2106319;28;20565;-73
2022/01/28 02:41:13;;;;;;;20.48;18.92;;;;;;;2.25;100.00;98476.66;2106796;28;20193;-73
2022/01/28 02:42:20;;;;;;;19.80;18.10;;;;;;;2.24;100.00;98486.38;2106923;28;20201;-72
2022/01/28 02:43:34;;;;;;;20.05;18.55;;;;;;;2.28;100.00;98515.66;2106806;28;20204;-72
2022/01/28 02:44:44;;;;;;;20.27;18.67;;;;;;;2.28;100.00;98485.91;2106651;28;20204;-73
2022/01/28 02:45:50;;;;;;;19.13;17.55;;;;;;;2.35;100.00;98492.53;2106918;28;20677;-72
2022/01/28 02:46:57;;;;;;;18.80;17.50;;;;;;;2.37;100.00;98500.94;2106153;28;20209;-72
2022/01/28 02:48:03;;;;;;;19.60;18.10;;;;;;;2.36;100.00;98494.09;2099267;28;20293;-72
2022/01/28 02:49:07;;;;;;;19.50;18.10;;;;;;;2.41;100.00;98503.84;2098463;28;20577;-72
2022/01/28 02:50:12;;;;;;;19.30;17.83;;;;;;;2.45;100.00;98500.47;2099047;28;20198;-72
2022/01/28 02:51:19;;;;;;;20.08;18.55;;;;;;;2.46;100.00;98494.16;2097781;28;20222;-72
2022/01/28 02:52:33;;;;;;;19.13;17.58;;;;;;;2.43;100.00;98502.56;2106261;28;20208;-72
2022/01/28 02:53:43;;;;;;;18.60;17.20;;;;;;;2.44;100.00;98490.19;2107002;28;20166;-72
2022/01/28 02:54:49;;;;;;;19.17;17.60;;;;;;;2.46;100.00;98502.03;2107269;28;20186;-72
2022/01/28 02:55:58;;;;;;;20.02;18.45;;;;;;;2.50;100.00;98500.47;2107256;28;20192;-72
2022/01/28 02:57:05;;;;;;;19.10;17.63;;;;;;;2.53;100.00;98505.25;2106167;28;20642;-72
2022/01/28 02:58:20;;;;;;;19.92;18.27;;;;;;;2.50;100.00;98478.63;2106706;28;20312;-73
2022/01/28 02:59:22;;;;;;;19.60;18.10;;;;;;;2.50;100.00;98494.41;2107334;28;20181;-73
2022/01/28 03:00:24;;;;;;;18.38;17.08;;;;;;;2.46;100.00;98502.03;2106536;28;20267;-72
2022/01/28 03:01:29;;;;;;;18.48;16.83;;;;;;;2.45;100.00;98497.03;2106473;28;20213;-72
2022/01/28 03:02:32;;;;;;;18.80;17.33;;;;;;;2.43;100.00;98492.03;2107439;28;20194;-72
2022/01/28 03:03:37;;;;;;;18.15;16.85;;;;;;;2.43;100.00;98496.47;2107162;28;20213;-72
2022/01/28 03:05:02;;;;;;;18.52;17.20;;;;;;;2.45;100.00;98518.88;2107182;28;20190;-72
2022/01/28 03:06:04;;;;;;;18.80;17.23;;;;;;;2.46;100.00;98491.50;2106745;28;20688;-72
2022/01/28 03:07:10;;;;;;;18.63;17.23;;;;;;;2.43;100.00;98494.66;2106062;28;20216;-72
2022/01/28 03:08:14;;;;;;;18.10;16.90;;;;;;;2.43;100.00;98485.94;2106558;28;20557;-71
2022/01/28 03:09:20;;;;;;;19.13;17.63;;;;;;;2.39;100.00;98492.78;2107126;28;20217;-72
2022/01/28 03:10:40;;;;;;;18.75;17.30;;;;;;;2.37;100.00;98479.09;2107144;28;20678;-71
2022/01/28 03:11:46;;;;;;;19.80;18.30;;;;;;;2.37;100.00;98489.63;2107448;28;20182;-72
2022/01/28 03:13:03;;;;;;;18.50;17.30;;;;;;;2.34;100.00;98479.59;2107213;28;20549;-72
2022/01/28 03:14:22;;;;;;;18.88;17.50;;;;;;;2.35;100.00;98474.09;2107281;28;20201;-72
2022/01/28 03:15:26;;;;;;;18.90;17.48;;;;;;;2.31;100.00;98501.16;2107202;28;20170;-71
2022/01/28 03:16:33;;;;;;;19.05;17.65;;;;;;;2.28;100.00;98483.28;2106446;28;20208;-71
2022/01/28 03:17:52;;;;;;;19.25;17.83;;;;;;;2.26;100.00;98483.53;2106814;28;20272;-72
2022/01/28 03:18:59;;;;;;;19.88;18.23;;;;;;;2.24;100.00;98486.38;2107135;28;20682;-72
2022/01/28 03:20:18;;;;;;;19.95;18.45;;;;;;;2.24;100.00;98510.06;2107185;28;20202;-71
2022/01/28 03:21:27;;;;;;;20.05;18.50;;;;;;;2.27;100.00;98493.00;2106748;28;20236;-71
2022/01/28 03:22:33;;;;;;;18.98;17.42;;;;;;;2.25;100.00;98495.88;2106096;28;20293;-72
2022/01/28 03:23:38;;;;;;;19.95;18.20;;;;;;;2.26;100.00;98471.16;2106548;28;20558;-72
2022/01/28 03:24:41;;;;;;;18.77;17.45;;;;;;;2.26;100.00;98489.59;2105879;28;20189;-72
2022/01/28 03:25:45;;;;;;;19.80;18.08;;;;;;;2.24;100.00;98486.38;2098549;28;20267;-72
2022/01/28 03:26:51;;;;;;;19.02;17.55;;;;;;;2.25;100.00;98485.34;2106739;28;20549;-71
2022/01/28 03:27:58;;;;;;;18.67;17.27;;;;;;;2.22;100.00;98480.59;2107336;28;20166;-71
2022/01/28 03:29:02;;;;;;;19.10;17.48;;;;;;;2.22;100.00;98485.06;2107104;28;20583;-71
2022/01/28 03:30:05;;;;;;;20.02;18.33;;;;;;;2.23;100.00;98492.72;2107145;28;20201;-71
2022/01/28 03:31:09;;;;;;;19.85;18.30;;;;;;;2.26;100.00;98468.53;2107032;28;20189;-71
2022/01/28 03:32:11;;;;;;;20.02;18.45;;;;;;;2.37;100.00;98495.69;2106982;28;20276;-71
2022/01/28 03:33:14;;;;;;;20.42;18.90;;;;;;;2.35;100.00;98495.16;2107068;28;20205;-72
2022/01/28 03:34:18;;;;;;;19.42;18.13;;;;;;;2.29;100.00;98479.59;2105451;28;20232;-71
2022/01/28 03:35:22;;;;;;;19.88;18.38;;;;;;;2.31;100.00;98488.00;2097775;28;20688;-72
2022/01/28 03:36:27;;;;;;;18.55;17.15;;;;;;;2.30;100.00;98489.84;2105936;28;20228;-71
2022/01/28 03:37:33;;;;;;;19.48;17.88;;;;;;;2.28;100.00;98481.44;2105785;28;20193;-71
2022/01/28 03:38:37;;;;;;;18.42;17.13;;;;;;;2.30;100.00;98484.59;2105832;28;20216;-72
2022/01/28 03:39:39;;;;;;;18.73;17.42;;;;;;;2.34;100.00;98484.84;2106640;28;20185;-71
2022/01/28 03:40:42;;;;;;;19.00;17.60;;;;;;;2.39;100.00;98479.63;2107054;28;20194;-72
2022/01/28 03:41:47;;;;;;;19.52;18.13;;;;;;;2.41;100.00;98469.63;2107058;28;20184;-71
2022/01/28 03:42:52;;;;;;;18.80;17.50;;;;;;;2.39;100.00;98474.38;2106970;28;20585;-71
2022/01/28 03:43:58;;;;;;;19.83;18.42;;;;;;;2.38;100.00;98473.56;2106952;28;20272;-71
2022/01/28 03:45:00;;;;;;;19.08;17.67;;;;;;;2.39;100.00;98477.00;2105994;28;20664;-71
2022/01/28 03:46:03;;;;;;;19.67;18.17;;;;;;;2.43;100.00;98478.06;2097638;28;20297;-71
2022/01/28 03:47:06;;;;;;;18.27;16.95;;;;;;;2.42;100.00;98505.44;2097414;28;20198;-72
2022/01/28 03:48:08;;;;;;;18.60;17.20;;;;;;;2.46;100.00;98494.16;2105879;28;20204;-72
2022/01/28 03:49:12;;;;;;;17.70;16.60;;;;;;;2.51;100.00;98511.78;2106627;28;20185;-71
2022/01/28 03:50:15;;;;;;;17.80;16.50;;;;;;;2.52;100.00;98481.81;2105810;28;20251;-71
2022/01/28 03:51:18;;;;;;;18.30;16.77;;;;;;;2.50;100.00;98507.56;2097857;28;20666;-71
2022/01/28 03:52:21;;;;;;;17.75;16.55;;;;;;;2.50;100.00;98468.09;2106397;28;20186;-71
2022/01/28 03:53:26;;;;;;;18.42;17.02;;;;;;;2.53;100.00;98480.75;2105791;28;20710;-71
2022/01/28 03:54:29;;;;;;;17.83;16.52;;;;;;;2.48;100.00;98472.81;2097749;28;20258;-71
2022/01/28 03:55:33;;;;;;;18.85;17.40;;;;;;;2.49;100.00;98519.94;2097777;28;20234;-71
2022/01/28 03:56:38;;;;;;;19.02;17.33;;;;;;;2.48;100.00;98514.94;2097826;28;20191;-71
2022/01/28 03:57:40;;;;;;;19.30;17.80;;;;;;;2.51;100.00;98490.72;2105600;28;20671;-71
2022/01/28 03:58:46;;;;;;;18.60;17.23;;;;;;;2.46;100.00;98499.41;2106299;28;20268;-71
2022/01/28 03:59:48;;;;;;;19.40;18.00;;;;;;;2.46;100.00;98493.34;2106939;28;20178;-71
2022/01/28 04:00:55;;;;;;;18.80;17.52;;;;;;;2.48;100.00;98478.09;2106900;28;20202;-71
2022/01/28 04:01:58;;;;;;;19.10;17.70;;;;;;;2.47;100.00;98506.25;2107118;28;20249;-71
2022/01/28 04:03:08;;;;;;;19.27;17.88;;;;;;;2.50;100.00;98482.03;2107148;28;20193;-71
2022/01/28 04:05:02;;;;;;;17.60;16.50;;;;;;;2.50;100.00;98502.31;2105340;28;20285;-71
2022/01/28 04:11:29;;;;;;;18.52;17.23;;;;;;;2.41;100.00;98491.47;2100288;28;20197;-72
2022/01/28 04:12:36;;;;;;;18.27;16.98;;;;;;;2.41;100.00;98490.69;2106519;28;20569;-72
2022/01/28 04:13:46;;;;;;;18.90;17.50;;;;;;;2.44;100.00;98495.47;2107153;28;20253;-71
2022/01/28 04:15:01;;;;;;;18.80;17.40;;;;;;;2.44;100.00;98487.56;2106231;28;20193;-71
2022/01/28 04:16:27;;;;;;;19.50;17.90;;;;;;;2.48;100.00;98501.78;2106216;28;20294;-71
2022/01/28 04:17:28;;;;;;;19.10;17.60;;;;;;;2.49;100.00;98496.25;2105989;28;20201;-72
2022/01/28 04:18:32;;;;;;;18.65;17.42;;;;;;;2.54;100.00;98508.66;2098014;28;20661;-72
2022/01/28 04:19:35;;;;;;;18.27;16.80;;;;;;;2.52;100.00;98493.13;2106320;28;20626;-71
2022/01/28 04:20:38;;;;;;;18.40;17.20;;;;;;;2.56;100.00;98514.47;2106064;28;20292;-72
2022/01/28 04:21:40;;;;;;;17.90;16.70;;;;;;;2.51;100.00;98506.53;2105773;28;20274;-71
2022/01/28 04:22:45;;;;;;;18.42;17.23;;;;;;;2.54;100.00;98487.59;2106053;28;20205;-72
2022/01/28 04:23:48;;;;;;;18.50;17.20;;;;;;;2.53;100.00;98512.34;2106514;28;20201;-72
2022/01/28 04:24:54;;;;;;;18.85;17.52;;;;;;;2.58;100.00;98508.94;2106202;28;20197;-71
2022/01/28 04:25:57;;;;;;;18.30;17.00;;;;;;;2.58;100.00;98509.72;2106247;28;20193;-72
2022/01/28 04:27:00;;;;;;;20.00;18.50;;;;;;;2.60;100.00;98509.47;2106844;28;20235;-72
2022/01/28 04:28:04;;;;;;;18.83;17.52;;;;;;;2.58;100.00;98511.56;2105601;28;20296;-72
2022/01/28 04:29:06;;;;;;;18.30;17.00;;;;;;;2.60;100.00;98493.66;2106281;28;20193;-72
2022/01/28 04:30:09;;;;;;;18.90;17.50;;;;;;;2.55;100.00;98486.53;2106802;28;20210;-72
2022/01/28 04:31:11;;;;;;;19.58;18.17;;;;;;;2.55;100.00;98507.59;2106136;28;20202;-73
2022/01/28 04:32:17;;;;;;;18.73;17.52;;;;;;;2.52;100.00;98514.19;2105794;28;20284;-73
2022/01/28 04:33:21;;;;;;;19.13;17.83;;;;;;;2.49;100.00;98495.47;2097997;28;20731;-73
2022/01/28 04:34:24;;;;;;;19.88;18.20;;;;;;;2.51;100.00;98503.88;2105495;28;20680;-73
2022/01/28 04:35:26;;;;;;;18.83;17.42;;;;;;;2.49;100.00;98495.47;2098045;28;20607;-73
2022/01/28 04:36:35;;;;;;;19.95;18.45;;;;;;;2.47;100.00;98476.50;2105807;28;20225;-72
2022/01/28 04:37:46;;;;;;;19.05;17.70;;;;;;;2.46;100.00;98493.34;2107078;28;20594;-72
2022/01/28 04:38:59;;;;;;;19.02;17.60;;;;;;;2.43;100.00;98499.13;2107081;28;20218;-72
2022/01/28 04:40:11;;;;;;;18.85;17.35;;;;;;;2.44;100.00;98480.44;2106775;28;20511;-72
2022/01/28 04:41:20;;;;;;;19.45;18.15;;;;;;;2.43;100.00;98493.84;2105759;28;20250;-72
2022/01/28 04:42:45;;;;;;;18.52;17.25;;;;;;;2.49;100.00;98487.56;2098812;28;20229;-72
2022/01/28 04:43:52;;;;;;;18.83;17.52;;;;;;;2.49;100.00;98482.31;2106389;28;20297;-72
2022/01/28 04:45:03;;;;;;;18.70;17.40;;;;;;;2.47;100.00;98479.13;2105738;28;20290;-72
2022/01/28 04:46:12;;;;;;;18.70;17.23;;;;;;;2.45;100.00;98494.41;2106318;28;20178;-72
2022/01/28 04:47:20;;;;;;;18.73;17.23;;;;;;;2.43;100.00;98489.41;2106676;28;20189;-71
2022/01/28 04:48:29;;;;;;;19.33;17.83;;;;;;;2.45;100.00;98518.09;2106983;28;20239;-71
2022/01/28 04:49:43;;;;;;;19.20;17.75;;;;;;;2.45;100.00;98507.56;2107004;28;20166;-71
2022/01/28 04:51:02;;;;;;;18.63;17.33;;;;;;;2.50;100.00;98483.88;2107018;28;20173;-71
2022/01/28 04:52:31;;;;;;;18.67;17.17;;;;;;;2.47;100.00;98487.03;2106616;28;20205;-71
2022/01/28 04:53:52;;;;;;;19.10;17.80;;;;;;;2.44;100.00;98506.00;2105518;28;20229;-72
2022/01/28 04:55:04;;;;;;;19.25;18.05;;;;;;;2.43;100.00;98517.53;2100380;28;20228;-72
2022/01/28 04:56:35;;;;;;;20.63;19.02;;;;;;;2.39;100.00;98482.25;2106427;28;20615;-72
2022/01/28 04:57:53;;;;;;;22.23;20.67;;;;;;;2.31;100.00;98511.69;2105559;28;20276;-72
2022/01/28 05:00:23;;;;;;;28.63;26.40;;;;;;;2.19;100.00;98494.28;2100359;28;20672;-72
2022/01/28 05:01:49;;;;;;;27.20;25.10;;;;;;;2.16;100.00;98491.34;2107601;28;20209;-72
2022/01/28 05:03:18;;;;;;;26.75;24.85;;;;;;;2.02;100.00;98488.38;2107339;28;20259;-72
2022/01/28 05:04:42;;;;;;;26.35;24.38;;;;;;;1.94;100.00;98486.22;2107872;28;20196;-72
2022/01/28 05:06:33;;;;;;;29.25;27.02;;;;;;;1.92;100.00;98496.22;2107372;28;20197;-72
2022/01/28 05:07:52;;;;;;;28.48;26.38;;;;;;;1.87;100.00;98540.88;2107529;28;20743;-72
2022/01/28 05:10:48;;;;;;;25.88;23.98;;;;;;;1.78;100.00;98487.19;2090589;28;20245;-72
2022/01/28 05:24:34;;;;;;;28.00;25.83;;;;;;;1.36;100.00;98512.34;2101496;28;20580;-72
2022/01/28 05:26:01;;;;;;;26.88;24.60;;;;;;;1.36;100.00;98553.59;2107786;28;20217;-72
2022/01/28 05:27:06;;;;;;;27.08;25.05;;;;;;;1.28;100.00;98554.84;2107987;28;20227;-72
2022/01/28 05:28:12;;;;;;;25.60;23.48;;;;;;;1.27;100.00;98520.94;2108015;28;20197;-72
2022/01/28 05:29:17;;;;;;;27.45;25.20;;;;;;;1.24;100.00;98550.34;2107330;28;20186;-72
2022/01/28 05:30:19;;;;;;;25.52;23.42;;;;;;;1.17;100.00;98545.28;2107406;28;20204;-72
2022/01/28 05:31:24;;;;;;;26.23;24.23;;;;;;;1.15;100.00;98528.19;2106874;28;20201;-72
2022/01/28 05:32:26;;;;;;;26.35;24.13;;;;;;;1.16;100.00;98553.41;2107423;28;20657;-72
2022/01/28 05:33:29;;;;;;;25.67;23.47;;;;;;;1.15;100.00;98536.84;2108011;28;20255;-72
2022/01/28 05:34:35;;;;;;;26.77;24.38;;;;;;;1.15;100.00;98557.06;2107592;28;20237;-72
2022/01/28 05:35:37;;;;;;;27.08;24.58;;;;;;;1.07;100.00;98532.03;2107908;28;20567;-72
2022/01/28 05:36:40;;;;;;;26.02;23.60;;;;;;;1.05;100.00;98534.91;2106881;28;20262;-72
2022/01/28 05:37:44;;;;;;;25.85;23.23;;;;;;;1.03;100.00;98550.09;2107250;28;20242;-72
2022/01/28 05:38:44;;;;;;;25.50;22.73;;;;;;;0.99;100.00;98559.53;2107341;28;20232;-72
2022/01/28 05:39:47;;;;;;;26.17;24.00;;;;;;;1.01;100.00;98573.19;2107927;28;20190;-72
2022/01/28 05:40:52;;;;;;;23.83;21.73;;;;;;;1.00;100.00;98513.84;2107079;28;20197;-73
2022/01/28 05:41:55;;;;;;;24.83;22.33;;;;;;;0.96;100.00;98573.16;2107279;28;20205;-73
2022/01/28 05:42:56;;;;;;;25.20;22.80;;;;;;;0.95;100.00;98552.38;2108107;28;20181;-72
2022/01/28 05:44:02;;;;;;;25.50;23.20;;;;;;;0.92;100.00;98542.38;2108143;28;20186;-72
2022/01/28 05:45:03;;;;;;;24.77;22.27;;;;;;;0.92;100.00;98579.94;2108114;28;20412;-72
2022/01/28 05:46:07;;;;;;;23.83;21.75;;;;;;;0.90;100.00;98557.59;2107885;28;20532;-73
2022/01/28 05:47:14;;;;;;;24.40;22.00;;;;;;;0.93;100.00;98547.38;2106768;28;20247;-72
2022/01/28 05:48:17;;;;;;;23.27;21.23;;;;;;;0.89;100.00;98569.13;2107486;28;20227;-73
2022/01/28 05:49:20;;;;;;;24.65;21.45;;;;;;;0.83;100.00;98578.78;2107145;28;20246;-72
2022/01/28 05:50:22;;;;;;;24.10;21.52;;;;;;;0.83;100.00;98582.19;2107357;28;20193;-72
2022/01/28 05:51:26;;;;;;;24.77;22.02;;;;;;;0.77;100.00;98554.28;2106152;28;20690;-73
2022/01/28 05:52:28;;;;;;;26.33;22.00;;;;;;;0.74;100.00;98553.97;2098980;28;20209;-72